Weather at Salima Airport

Public forecast

Using degrees Celsius for public forecast. Weather courtesy of forecast.io.

Closest aviation weather report (METAR) to Salima Airport

Report is more than 6 hours old.

Closest report is Lilongwe International Airport, 46.9 nm (86.8 km) W.

2024/07/14 10:00 (retrieved 8 hours ago)

FWKI 141000Z 10011KT CAVOK 23/06 Q1024 NOSIG

Closest aviation forecast (TAF) to Salima Airport

Forecast is more than 12 hours old.

Closest forecast is Lilongwe International Airport, 46.9 nm (86.8 km) W.

2024/07/13 18:00 (retrieved 1 day ago)

TAF FVJN 131600Z 1318/1424 VRB03KT CAVOK TAF FWKI 131500Z 1318/1424 10008KT 9999 FEW035 FM131800 05006KT CAVOK PROB30 TEMPO 1402/1406 07008KT 4000 VCFG NSC BECMG 1407/1409 08008G18KT CAVOK